Time;durP1;ratioP1;P1;durP2;ratioP2;P2;SDS_P1;SDS_P2;PMS_P1;PMS_P2;Temp;Humidity;BMP_temperature;BMP_pressure;BME280_temperature;BME280_humidity;BME280_pressure;Samples;Min_cycle;Max_cycle;Signal;HPM_P1;HPM_P2
2023/09/13 00:01:00;;;;;;;0.88;0.88;;;;;;;;;;6156757;23;20182;-91
2023/09/13 00:03:29;;;;;;;0.40;0.40;;;;;;;;;;6156279;23;20194;-92
2023/09/13 00:05:56;;;;;;;1.65;0.90;;;;;;;;;;6155702;23;20191;-92
2023/09/13 00:08:24;;;;;;;0.70;0.70;;;;;;;;;;6155990;23;20179;-92
2023/09/13 00:10:51;;;;;;;0.93;0.63;;;;;;;;;;6156200;23;20254;-92
2023/09/13 00:13:19;;;;;;;0.70;0.70;;;;;;;;;;6155293;23;20206;-92
2023/09/13 00:15:47;;;;;;;0.70;0.70;;;;;;;;;;6155970;23;20245;-92
2023/09/13 00:18:16;;;;;;;0.68;0.68;;;;;;;;;;6155706;23;20220;-91
2023/09/13 00:20:46;;;;;;;0.90;0.90;;;;;;;;;;6156172;23;20179;-92
2023/09/13 00:23:14;;;;;;;0.70;0.70;;;;;;;;;;6155612;23;20187;-92
2023/09/13 00:25:42;;;;;;;0.80;0.80;;;;;;;;;;6155545;23;20602;-92
2023/09/13 00:28:10;;;;;;;0.75;0.75;;;;;;;;;;6155332;23;20548;-92
2023/09/13 00:30:37;;;;;;;1.60;1.00;;;;;;;;;;6155229;23;20193;-91
2023/09/13 00:33:05;;;;;;;0.90;0.90;;;;;;;;;;6154897;23;20213;-92
2023/09/13 00:35:33;;;;;;;0.60;0.60;;;;;;;;;;6155836;23;20274;-92
2023/09/13 00:38:02;;;;;;;0.80;0.80;;;;;;;;;;6155559;23;20607;-92
2023/09/13 00:40:29;;;;;;;0.60;0.60;;;;;;;;;;6155285;23;20222;-92
2023/09/13 00:42:59;;;;;;;0.70;0.70;;;;;;;;;;6155670;23;20178;-92
2023/09/13 00:45:26;;;;;;;0.60;0.60;;;;;;;;;;6155260;23;20191;-92
2023/09/13 00:47:54;;;;;;;0.88;0.85;;;;;;;;;;6155810;23;20202;-92
2023/09/13 00:50:22;;;;;;;0.60;0.60;;;;;;;;;;6157375;23;20250;-91
2023/09/13 00:52:51;;;;;;;1.33;0.70;;;;;;;;;;6155508;23;20171;-92
2023/09/13 00:55:22;;;;;;;2.13;1.02;;;;;;;;;;6154805;23;20195;-91
2023/09/13 00:57:51;;;;;;;2.10;1.25;;;;;;;;;;6155234;23;20183;-93
2023/09/13 01:00:19;;;;;;;1.08;1.05;;;;;;;;;;6154557;23;20186;-92
2023/09/13 01:02:47;;;;;;;0.70;0.70;;;;;;;;;;6154655;23;20174;-92
2023/09/13 01:05:16;;;;;;;0.73;0.73;;;;;;;;;;6154683;23;20215;-92
2023/09/13 01:07:44;;;;;;;1.13;0.70;;;;;;;;;;6154301;23;20194;-93
2023/09/13 01:10:12;;;;;;;0.80;0.80;;;;;;;;;;6154945;23;20190;-93
2023/09/13 01:12:41;;;;;;;0.60;0.60;;;;;;;;;;6167301;23;20175;-93
2023/09/13 01:15:10;;;;;;;0.80;0.80;;;;;;;;;;6154985;23;20461;-92
2023/09/13 01:17:44;;;;;;;0.88;0.88;;;;;;;;;;6155344;23;20178;-92
2023/09/13 01:20:17;;;;;;;1.00;1.00;;;;;;;;;;6155489;23;20210;-92
2023/09/13 01:23:12;;;;;;;0.70;0.70;;;;;;;;;;6154997;23;20187;-92
2023/09/13 01:26:00;;;;;;;0.70;0.70;;;;;;;;;;6163894;23;20195;-92
2023/09/13 01:28:41;;;;;;;1.48;0.73;;;;;;;;;;6155966;23;20166;-93
2023/09/13 01:31:10;;;;;;;0.60;0.60;;;;;;;;;;6153550;23;20512;-92
2023/09/13 01:33:38;;;;;;;1.15;0.82;;;;;;;;;;6154809;23;20250;-92
2023/09/13 01:36:06;;;;;;;0.80;0.80;;;;;;;;;;6154865;23;20214;-92
2023/09/13 01:38:34;;;;;;;2.33;0.80;;;;;;;;;;6155436;23;20215;-92
2023/09/13 01:41:08;;;;;;;0.55;0.55;;;;;;;;;;6176699;23;20170;-92
2023/09/13 01:43:38;;;;;;;1.17;1.10;;;;;;;;;;6183002;23;20177;-93
2023/09/13 01:46:06;;;;;;;0.82;0.80;;;;;;;;;;6182941;23;20202;-94
2023/09/13 01:48:34;;;;;;;0.65;0.65;;;;;;;;;;6166866;23;20588;-92
2023/09/13 01:51:02;;;;;;;1.17;1.05;;;;;;;;;;6156179;23;20250;-92
2023/09/13 01:53:30;;;;;;;0.80;0.80;;;;;;;;;;6156671;23;20171;-93
2023/09/13 01:55:58;;;;;;;0.63;0.63;;;;;;;;;;6157406;23;20210;-92
2023/09/13 01:58:25;;;;;;;0.50;0.50;;;;;;;;;;6157426;23;20563;-93
2023/09/13 02:00:54;;;;;;;0.43;0.43;;;;;;;;;;6157625;23;20230;-92
2023/09/13 02:03:22;;;;;;;0.60;0.60;;;;;;;;;;6157591;23;20191;-92
2023/09/13 02:05:49;;;;;;;0.47;0.47;;;;;;;;;;6158121;23;20198;-93
2023/09/13 02:08:17;;;;;;;0.40;0.40;;;;;;;;;;6157957;23;20175;-93
2023/09/13 02:10:47;;;;;;;0.88;0.88;;;;;;;;;;6158039;23;20187;-92
2023/09/13 02:13:14;;;;;;;0.63;0.45;;;;;;;;;;6157323;23;20159;-92
2023/09/13 02:15:42;;;;;;;0.68;0.68;;;;;;;;;;6156900;23;20694;-93
2023/09/13 02:18:11;;;;;;;0.85;0.85;;;;;;;;;;6157090;23;20198;-93
2023/09/13 02:20:39;;;;;;;0.40;0.40;;;;;;;;;;6156962;23;20217;-92
2023/09/13 02:23:07;;;;;;;0.73;0.73;;;;;;;;;;6157278;23;20187;-92
2023/09/13 02:25:37;;;;;;;0.80;0.80;;;;;;;;;;6168254;23;20191;-92
2023/09/13 02:28:06;;;;;;;0.77;0.77;;;;;;;;;;6157381;23;20171;-92
2023/09/13 02:30:36;;;;;;;0.70;0.70;;;;;;;;;;6169258;23;20171;-92
2023/09/13 02:33:04;;;;;;;0.57;0.57;;;;;;;;;;6156672;23;20193;-92
2023/09/13 02:35:33;;;;;;;0.40;0.40;;;;;;;;;;6156712;23;20210;-94
2023/09/13 02:38:01;;;;;;;0.47;0.47;;;;;;;;;;6157148;23;20183;-92
2023/09/13 02:40:28;;;;;;;0.60;0.60;;;;;;;;;;6156632;23;20211;-92
2023/09/13 02:42:56;;;;;;;1.17;0.60;;;;;;;;;;6156948;23;20194;-92
2023/09/13 02:45:24;;;;;;;0.80;0.80;;;;;;;;;;6157630;23;20199;-93
2023/09/13 02:47:52;;;;;;;1.15;1.10;;;;;;;;;;6156836;23;20238;-93
2023/09/13 02:50:19;;;;;;;0.80;0.80;;;;;;;;;;6156871;23;20242;-92
2023/09/13 02:52:49;;;;;;;0.40;0.40;;;;;;;;;;6156539;23;20258;-92
2023/09/13 02:55:16;;;;;;;0.60;0.60;;;;;;;;;;6156762;23;20218;-92
2023/09/13 02:57:44;;;;;;;0.50;0.50;;;;;;;;;;6157036;23;20171;-92
2023/09/13 03:00:13;;;;;;;0.55;0.55;;;;;;;;;;6157241;23;20210;-92
2023/09/13 03:02:41;;;;;;;0.63;0.63;;;;;;;;;;6156478;23;20175;-92
2023/09/13 03:05:09;;;;;;;0.50;0.50;;;;;;;;;;6156275;23;20522;-92
2023/09/13 03:07:37;;;;;;;0.77;0.77;;;;;;;;;;6157077;23;20210;-92
2023/09/13 03:10:07;;;;;;;0.60;0.60;;;;;;;;;;6156846;23;20187;-92
2023/09/13 03:12:34;;;;;;;0.75;0.75;;;;;;;;;;6156292;23;20187;-92
2023/09/13 03:15:03;;;;;;;0.80;0.80;;;;;;;;;;6155354;23;20214;-92
2023/09/13 03:17:30;;;;;;;0.60;0.60;;;;;;;;;;6153110;23;20175;-92
2023/09/13 03:19:58;;;;;;;0.60;0.60;;;;;;;;;;6154092;23;20254;-92
2023/09/13 03:22:26;;;;;;;0.40;0.40;;;;;;;;;;6153416;23;20253;-92
2023/09/13 03:24:54;;;;;;;2.47;0.70;;;;;;;;;;6153924;23;20246;-92
2023/09/13 03:27:23;;;;;;;0.90;0.85;;;;;;;;;;6154621;23;20167;-92
2023/09/13 03:29:51;;;;;;;0.80;0.80;;;;;;;;;;6165466;23;20501;-93
2023/09/13 03:32:18;;;;;;;1.35;1.15;;;;;;;;;;6153739;23;20258;-92
2023/09/13 03:34:46;;;;;;;1.48;1.23;;;;;;;;;;6154361;23;20199;-92
2023/09/13 03:37:13;;;;;;;0.90;0.90;;;;;;;;;;6153825;23;20191;-92
2023/09/13 03:39:41;;;;;;;0.80;0.80;;;;;;;;;;6153738;23;20597;-93
2023/09/13 03:42:08;;;;;;;1.30;0.85;;;;;;;;;;6153182;23;20432;-92
2023/09/13 03:44:37;;;;;;;0.82;0.82;;;;;;;;;;6153027;23;20238;-91
2023/09/13 03:47:06;;;;;;;0.85;0.82;;;;;;;;;;6160863;23;20183;-92
2023/09/13 03:49:33;;;;;;;0.90;0.90;;;;;;;;;;6158249;23;20182;-92
2023/09/13 03:52:02;;;;;;;0.95;0.90;;;;;;;;;;6154124;23;20198;-92
2023/09/13 03:54:30;;;;;;;0.90;0.90;;;;;;;;;;6153733;23;20206;-92
2023/09/13 03:56:58;;;;;;;0.63;0.63;;;;;;;;;;6153180;23;20213;-93
2023/09/13 03:59:25;;;;;;;0.80;0.80;;;;;;;;;;6154751;23;20186;-92
2023/09/13 04:01:55;;;;;;;0.70;0.70;;;;;;;;;;6153719;23;20199;-92
2023/09/13 04:04:23;;;;;;;0.70;0.70;;;;;;;;;;6154597;23;20229;-91
2023/09/13 04:06:51;;;;;;;0.77;0.77;;;;;;;;;;6154355;23;20191;-92
2023/09/13 04:09:19;;;;;;;1.10;1.10;;;;;;;;;;6154276;23;20632;-91
2023/09/13 04:11:46;;;;;;;0.93;0.93;;;;;;;;;;6153453;23;20190;-92
2023/09/13 04:14:13;;;;;;;0.80;0.80;;;;;;;;;;6154085;23;20230;-93
2023/09/13 04:16:41;;;;;;;0.80;0.80;;;;;;;;;;6152942;23;20213;-91
2023/09/13 04:19:10;;;;;;;0.80;0.80;;;;;;;;;;6153098;23;20183;-92
2023/09/13 04:21:37;;;;;;;1.60;1.50;;;;;;;;;;6152787;23;20218;-92
2023/09/13 04:24:06;;;;;;;1.65;1.55;;;;;;;;;;6153535;23;20183;-92
2023/09/13 04:26:34;;;;;;;2.00;1.90;;;;;;;;;;6153203;23;20219;-92
2023/09/13 04:29:02;;;;;;;1.50;1.40;;;;;;;;;;6153948;23;20175;-92
2023/09/13 04:31:30;;;;;;;1.15;1.15;;;;;;;;;;6153682;23;20194;-92
2023/09/13 04:33:58;;;;;;;2.10;2.00;;;;;;;;;;6154041;23;20558;-92
2023/09/13 04:36:27;;;;;;;2.30;2.20;;;;;;;;;;6153800;23;20614;-93
2023/09/13 04:38:55;;;;;;;1.70;1.60;;;;;;;;;;6166449;23;20175;-92
2023/09/13 04:41:23;;;;;;;2.08;1.95;;;;;;;;;;6153578;23;20269;-92
2023/09/13 04:43:51;;;;;;;4.53;2.10;;;;;;;;;;6153480;23;20250;-92
2023/09/13 04:46:18;;;;;;;1.80;1.70;;;;;;;;;;6153102;23;20217;-92
2023/09/13 04:48:46;;;;;;;2.33;1.75;;;;;;;;;;6153378;23;20230;-92
2023/09/13 04:51:13;;;;;;;1.50;1.40;;;;;;;;;;6154020;23;20653;-94
2023/09/13 04:53:42;;;;;;;1.17;1.17;;;;;;;;;;6153813;23;20196;-92
2023/09/13 04:56:10;;;;;;;1.90;1.80;;;;;;;;;;6153692;23;20273;-92
2023/09/13 04:58:38;;;;;;;1.42;1.33;;;;;;;;;;6153272;23;20203;-92
2023/09/13 05:01:05;;;;;;;1.20;1.20;;;;;;;;;;6152998;23;20706;-92
2023/09/13 05:03:33;;;;;;;1.33;1.23;;;;;;;;;;6153806;23;20197;-92
2023/09/13 05:06:00;;;;;;;1.40;1.30;;;;;;;;;;6153413;23;20255;-92
2023/09/13 05:08:28;;;;;;;1.30;1.20;;;;;;;;;;6153632;23;20568;-91
2023/09/13 05:10:57;;;;;;;1.80;1.70;;;;;;;;;;6152879;23;20195;-92
2023/09/13 05:13:24;;;;;;;1.58;1.48;;;;;;;;;;6152158;23;20182;-93
2023/09/13 05:15:52;;;;;;;1.35;1.25;;;;;;;;;;6151709;23;20207;-92
2023/09/13 05:18:20;;;;;;;1.50;1.40;;;;;;;;;;6154911;23;20183;-91
2023/09/13 05:20:47;;;;;;;3.20;2.95;;;;;;;;;;6155775;23;20191;-92
2023/09/13 05:23:15;;;;;;;1.73;1.63;;;;;;;;;;6155026;23;20337;-92
2023/09/13 05:25:45;;;;;;;2.05;1.90;;;;;;;;;;6155216;23;20601;-91
2023/09/13 05:28:15;;;;;;;2.42;2.22;;;;;;;;;;6155117;23;20183;-91
2023/09/13 05:30:46;;;;;;;1.58;1.48;;;;;;;;;;6155509;23;20186;-92
2023/09/13 05:33:16;;;;;;;1.98;1.88;;;;;;;;;;6154020;23;20197;-92
2023/09/13 05:35:44;;;;;;;1.65;1.55;;;;;;;;;;6155787;23;20267;-92
2023/09/13 05:38:12;;;;;;;1.90;1.80;;;;;;;;;;6155886;23;20198;-92
2023/09/13 05:40:39;;;;;;;1.70;1.60;;;;;;;;;;6155207;23;20191;-92
2023/09/13 05:43:07;;;;;;;2.22;2.13;;;;;;;;;;6155924;23;20187;-93
2023/09/13 05:45:36;;;;;;;1.80;1.70;;;;;;;;;;6155639;23;20667;-91
2023/09/13 05:48:04;;;;;;;1.40;1.30;;;;;;;;;;6155793;23;20556;-93
2023/09/13 05:50:32;;;;;;;1.63;1.52;;;;;;;;;;6155449;23;20179;-92
2023/09/13 05:52:59;;;;;;;1.50;1.40;;;;;;;;;;6155949;23;20190;-92
2023/09/13 05:55:27;;;;;;;2.55;2.35;;;;;;;;;;6155545;23;20214;-92
2023/09/13 05:57:55;;;;;;;3.05;2.00;;;;;;;;;;6162550;23;20182;-91
2023/09/13 06:00:22;;;;;;;1.80;1.70;;;;;;;;;;6164201;23;20182;-92
2023/09/13 06:02:51;;;;;;;1.70;1.60;;;;;;;;;;6161873;23;20211;-92
2023/09/13 06:05:19;;;;;;;1.63;1.52;;;;;;;;;;6155894;23;20201;-92
2023/09/13 06:07:47;;;;;;;1.67;1.58;;;;;;;;;;6155485;23;20684;-92
2023/09/13 06:10:14;;;;;;;1.10;1.10;;;;;;;;;;6155723;23;20191;-92
2023/09/13 06:12:42;;;;;;;1.60;1.50;;;;;;;;;;6155179;23;20198;-92
2023/09/13 06:15:10;;;;;;;1.65;1.58;;;;;;;;;;6154982;23;20198;-92
2023/09/13 06:17:38;;;;;;;1.17;1.15;;;;;;;;;;6154971;23;20210;-91
2023/09/13 06:20:08;;;;;;;1.42;1.33;;;;;;;;;;6154980;23;20191;-91
2023/09/13 06:22:36;;;;;;;1.17;1.17;;;;;;;;;;6154832;23;20198;-91
2023/09/13 06:25:04;;;;;;;1.35;1.30;;;;;;;;;;6155584;23;20218;-92
2023/09/13 06:27:31;;;;;;;1.13;1.13;;;;;;;;;;6155557;23;20370;-91
2023/09/13 06:29:59;;;;;;;1.48;1.38;;;;;;;;;;6155896;23;20739;-91
2023/09/13 06:32:27;;;;;;;1.00;1.00;;;;;;;;;;6154876;23;20195;-92
2023/09/13 06:34:58;;;;;;;1.40;1.30;;;;;;;;;;6165494;23;20194;-91
2023/09/13 06:37:27;;;;;;;0.98;0.98;;;;;;;;;;6154854;23;20174;-92
2023/09/13 06:39:55;;;;;;;1.10;1.10;;;;;;;;;;6156409;23;20198;-92
2023/09/13 06:42:23;;;;;;;1.10;1.10;;;;;;;;;;6156193;23;20254;-91
2023/09/13 06:44:50;;;;;;;1.30;1.20;;;;;;;;;;6159913;23;20195;-91
2023/09/13 06:47:18;;;;;;;1.45;1.35;;;;;;;;;;6156773;23;20209;-91
2023/09/13 06:49:46;;;;;;;1.52;1.42;;;;;;;;;;6156675;23;20242;-91
2023/09/13 06:52:13;;;;;;;2.05;1.85;;;;;;;;;;6156944;23;20392;-91
2023/09/13 06:54:42;;;;;;;1.98;1.88;;;;;;;;;;6157896;23;20171;-91
2023/09/13 06:57:10;;;;;;;1.90;1.80;;;;;;;;;;6169016;23;20182;-92
2023/09/13 06:59:37;;;;;;;1.83;1.73;;;;;;;;;;6166976;23;20679;-93
2023/09/13 07:02:05;;;;;;;1.90;1.80;;;;;;;;;;6157136;23;20604;-93
2023/09/13 07:04:33;;;;;;;2.50;1.70;;;;;;;;;;6156610;23;20230;-92
2023/09/13 07:07:05;;;;;;;1.95;1.85;;;;;;;;;;6160933;23;20227;-93
2023/09/13 07:09:33;;;;;;;2.00;1.90;;;;;;;;;;6164498;23;20175;-94
2023/09/13 07:12:02;;;;;;;10.88;9.77;;;;;;;;;;6163639;23;20187;-92
2023/09/13 07:14:30;;;;;;;5.20;4.47;;;;;;;;;;6167208;23;20179;-92
2023/09/13 07:16:57;;;;;;;4.25;3.85;;;;;;;;;;6170030;23;20195;-92
2023/09/13 07:19:25;;;;;;;6.72;4.63;;;;;;;;;;6174565;23;20520;-91
2023/09/13 07:21:52;;;;;;;6.20;5.60;;;;;;;;;;6168358;23;20215;-91
2023/09/13 07:24:20;;;;;;;4.03;3.72;;;;;;;;;;6169770;23;20171;-92
2023/09/13 07:26:48;;;;;;;3.67;3.42;;;;;;;;;;6158800;23;20203;-92
2023/09/13 07:29:18;;;;;;;3.13;2.92;;;;;;;;;;6157961;23;20560;-91
2023/09/13 07:31:45;;;;;;;2.58;2.38;;;;;;;;;;6158346;23;20168;-92
2023/09/13 07:34:13;;;;;;;2.65;2.45;;;;;;;;;;6165292;23;20190;-92
2023/09/13 07:36:41;;;;;;;2.50;2.33;;;;;;;;;;6166384;23;20201;-92
2023/09/13 07:39:09;;;;;;;1.90;1.80;;;;;;;;;;6163482;23;20175;-92
2023/09/13 07:41:37;;;;;;;4.22;3.00;;;;;;;;;;6162717;23;20187;-92
2023/09/13 07:44:04;;;;;;;3.60;3.30;;;;;;;;;;6163750;23;20218;-91
2023/09/13 07:46:33;;;;;;;5.18;4.68;;;;;;;;;;6166851;23;20207;-92
2023/09/13 07:49:01;;;;;;;4.28;3.97;;;;;;;;;;6164089;23;20167;-92
2023/09/13 07:51:29;;;;;;;6.10;5.60;;;;;;;;;;6162352;23;20178;-91
2023/09/13 07:54:04;;;;;;;5.57;5.07;;;;;;;;;;6157449;23;20234;-91
2023/09/13 07:56:32;;;;;;;10.48;9.40;;;;;;;;;;6157598;23;20191;-91
2023/09/13 07:59:00;;;;;;;8.65;7.70;;;;;;;;;;6158059;23;20194;-91
2023/09/13 08:01:27;;;;;;;6.28;5.68;;;;;;;;;;6157865;23;20191;-92
2023/09/13 08:03:56;;;;;;;6.75;6.05;;;;;;;;;;6160017;23;20191;-91
2023/09/13 08:06:24;;;;;;;4.85;4.45;;;;;;;;;;6157323;23;20294;-92
2023/09/13 08:08:52;;;;;;;4.63;4.30;;;;;;;;;;6157201;23;20238;-92
2023/09/13 08:11:19;;;;;;;4.10;3.80;;;;;;;;;;6161505;23;20191;-92
2023/09/13 08:13:47;;;;;;;4.50;4.10;;;;;;;;;;6161620;23;20187;-91
2023/09/13 08:16:15;;;;;;;4.03;3.72;;;;;;;;;;6158269;23;20199;-91
2023/09/13 08:18:42;;;;;;;3.70;3.40;;;;;;;;;;6172265;23;20155;-90
2023/09/13 08:21:11;;;;;;;4.18;3.85;;;;;;;;;;6169636;23;20183;-92
2023/09/13 08:23:39;;;;;;;5.32;4.82;;;;;;;;;;6162564;23;20211;-90
2023/09/13 08:26:06;;;;;;;3.92;3.47;;;;;;;;;;6161801;23;20202;-92
2023/09/13 08:28:34;;;;;;;4.60;3.47;;;;;;;;;;6163721;23;20207;-91
2023/09/13 08:31:03;;;;;;;4.00;3.70;;;;;;;;;;6162215;23;20250;-93
2023/09/13 08:33:31;;;;;;;4.85;4.45;;;;;;;;;;6169376;23;20500;-91
2023/09/13 08:35:58;;;;;;;3.72;3.42;;;;;;;;;;6161049;23;20211;-92
2023/09/13 08:38:27;;;;;;;4.78;4.38;;;;;;;;;;6158246;23;20177;-91
2023/09/13 08:40:55;;;;;;;5.30;4.80;;;;;;;;;;6160576;23;20167;-91
2023/09/13 08:43:23;;;;;;;4.47;4.13;;;;;;;;;;6159853;23;20584;-92
2023/09/13 08:45:52;;;;;;;3.92;3.63;;;;;;;;;;6159648;23;20273;-92
2023/09/13 08:48:20;;;;;;;2.88;2.67;;;;;;;;;;6171494;23;20158;-92
2023/09/13 08:50:49;;;;;;;3.80;3.50;;;;;;;;;;6173227;23;20175;-91
2023/09/13 08:53:18;;;;;;;4.13;3.78;;;;;;;;;;6172432;23;20182;-93
2023/09/13 08:55:47;;;;;;;3.55;3.25;;;;;;;;;;6169928;23;20195;-92
2023/09/13 08:58:15;;;;;;;4.50;4.10;;;;;;;;;;6173135;23;20182;-91
2023/09/13 09:00:44;;;;;;;4.88;4.47;;;;;;;;;;6168938;23;20182;-92
2023/09/13 09:03:13;;;;;;;4.00;3.75;;;;;;;;;;6170484;23;20195;-91
2023/09/13 09:05:41;;;;;;;4.07;3.38;;;;;;;;;;6173877;23;20218;-91
2023/09/13 09:08:10;;;;;;;3.95;3.58;;;;;;;;;;6175026;23;20155;-92
2023/09/13 09:10:37;;;;;;;4.85;4.43;;;;;;;;;;6176469;23;20171;-93
2023/09/13 09:13:10;;;;;;;4.93;4.53;;;;;;;;;;6171041;23;20179;-89
2023/09/13 09:15:40;;;;;;;12.10;10.77;;;;;;;;;;6176470;23;20183;-91
2023/09/13 09:18:11;;;;;;;8.68;7.07;;;;;;;;;;6171441;23;20167;-91
2023/09/13 09:20:41;;;;;;;6.70;6.10;;;;;;;;;;6160817;23;20195;-90
2023/09/13 09:23:09;;;;;;;5.88;5.28;;;;;;;;;;6160129;23;20187;-91
2023/09/13 09:25:43;;;;;;;5.32;4.80;;;;;;;;;;6168266;23;20202;-91
2023/09/13 09:29:41;;;;;;;6.22;5.50;;;;;;;;;;6140245;23;20217;-91
2023/09/13 09:32:11;;;;;;;5.65;5.18;;;;;;;;;;6160834;23;20684;-91
2023/09/13 09:34:43;;;;;;;4.95;4.55;;;;;;;;;;6155579;23;20207;-91
2023/09/13 09:37:11;;;;;;;6.05;5.45;;;;;;;;;;6169352;23;20178;-90
2023/09/13 09:39:41;;;;;;;4.15;3.85;;;;;;;;;;6162278;23;20219;-91
2023/09/13 09:42:14;;;;;;;6.80;4.90;;;;;;;;;;6163098;23;20509;-91
2023/09/13 09:44:41;;;;;;;6.03;5.43;;;;;;;;;;6159845;23;20211;-91
2023/09/13 09:47:13;;;;;;;6.60;6.00;;;;;;;;;;6160336;23;20191;-91
2023/09/13 09:49:41;;;;;;;7.63;6.93;;;;;;;;;;6165111;23;20207;-91
2023/09/13 09:52:08;;;;;;;6.72;6.18;;;;;;;;;;6169239;23;20175;-93
2023/09/13 09:54:37;;;;;;;7.82;7.13;;;;;;;;;;6167083;23;20194;-92
2023/09/13 09:57:05;;;;;;;8.95;8.13;;;;;;;;;;6167329;23;20206;-92
2023/09/13 09:59:34;;;;;;;11.07;9.98;;;;;;;;;;6169776;23;20198;-93
2023/09/13 10:02:03;;;;;;;11.95;10.70;;;;;;;;;;6164703;23;20179;-93
2023/09/13 10:04:45;;;;;;;13.82;8.38;;;;;;;;;;6173271;23;20197;-91
2023/09/13 10:07:13;;;;;;;7.72;7.00;;;;;;;;;;6176305;23;20182;-92
2023/09/13 10:09:41;;;;;;;6.45;5.95;;;;;;;;;;6181135;23;20195;-91
2023/09/13 10:12:09;;;;;;;9.10;6.43;;;;;;;;;;6176608;23;20182;-92
2023/09/13 10:14:37;;;;;;;8.55;7.80;;;;;;;;;;6164453;23;20175;-93
2023/09/13 10:17:06;;;;;;;9.82;9.02;;;;;;;;;;6167806;23;20171;-93
2023/09/13 10:19:36;;;;;;;8.70;7.80;;;;;;;;;;6177734;23;20368;-93
2023/09/13 10:22:05;;;;;;;6.90;6.30;;;;;;;;;;6175585;23;20167;-94
2023/09/13 10:24:37;;;;;;;9.13;8.23;;;;;;;;;;6167992;23;20191;-92
2023/09/13 10:27:08;;;;;;;8.27;7.57;;;;;;;;;;6163649;23;20171;-92
2023/09/13 10:29:41;;;;;;;22.20;18.90;;;;;;;;;;6167712;23;20191;-93
2023/09/13 10:32:11;;;;;;;13.82;11.00;;;;;;;;;;6167881;23;20186;-89
2023/09/13 10:34:48;;;;;;;10.85;9.85;;;;;;;;;;6173983;23;20163;-91
2023/09/13 10:37:25;;;;;;;11.30;10.20;;;;;;;;;;6164204;23;20175;-93
2023/09/13 10:39:56;;;;;;;8.77;8.05;;;;;;;;;;6165727;23;20162;-92
2023/09/13 10:42:25;;;;;;;10.07;9.13;;;;;;;;;;6165467;23;20626;-93
2023/09/13 10:44:53;;;;;;;8.93;8.10;;;;;;;;;;6169890;23;20195;-92
2023/09/13 10:47:21;;;;;;;9.50;8.55;;;;;;;;;;6175895;23;20178;-91
2023/09/13 10:49:50;;;;;;;8.77;7.97;;;;;;;;;;6175566;23;20531;-92
2023/09/13 10:52:18;;;;;;;8.48;7.68;;;;;;;;;;6175388;23;20175;-94
2023/09/13 10:54:47;;;;;;;10.60;9.60;;;;;;;;;;6166606;23;20186;-93
2023/09/13 10:57:17;;;;;;;10.70;9.70;;;;;;;;;;6161556;23;20549;-92
2023/09/13 10:59:45;;;;;;;9.20;8.40;;;;;;;;;;6169144;23;20287;-94
2023/09/13 11:02:13;;;;;;;9.35;7.55;;;;;;;;;;6157206;23;20529;-93
2023/09/13 11:04:40;;;;;;;9.52;8.75;;;;;;;;;;6157452;23;20202;-93
2023/09/13 11:07:10;;;;;;;10.55;9.55;;;;;;;;;;6157448;23;20674;-93
2023/09/13 11:09:38;;;;;;;12.52;11.30;;;;;;;;;;6156550;23;20198;-92
2023/09/13 11:12:06;;;;;;;11.52;10.48;;;;;;;;;;6157241;23;20171;-91
2023/09/13 11:14:34;;;;;;;10.45;9.55;;;;;;;;;;6156958;23;20194;-92
2023/09/13 11:17:11;;;;;;;12.18;11.00;;;;;;;;;;6156289;23;20579;-91
2023/09/13 11:19:39;;;;;;;8.30;7.60;;;;;;;;;;6155298;23;20262;-91
2023/09/13 11:22:08;;;;;;;9.32;8.52;;;;;;;;;;6155952;23;20238;-90
2023/09/13 11:24:37;;;;;;;12.45;11.25;;;;;;;;;;6155432;23;20287;-92
2023/09/13 11:27:13;;;;;;;12.00;10.90;;;;;;;;;;6155950;23;20254;-90
2023/09/13 11:29:43;;;;;;;13.02;11.82;;;;;;;;;;6155001;23;20191;-91
2023/09/13 11:32:18;;;;;;;14.57;12.05;;;;;;;;;;6154836;23;20175;-90
2023/09/13 11:34:46;;;;;;;13.65;12.25;;;;;;;;;;6157497;23;20147;-91
2023/09/13 11:37:15;;;;;;;15.13;13.57;;;;;;;;;;6156829;23;20222;-91
2023/09/13 11:39:43;;;;;;;13.45;12.38;;;;;;;;;;6155960;23;20266;-92
2023/09/13 11:42:13;;;;;;;12.43;11.23;;;;;;;;;;6156537;23;20198;-91
2023/09/13 11:44:41;;;;;;;12.32;11.13;;;;;;;;;;6156164;23;20273;-92
2023/09/13 11:47:12;;;;;;;11.27;10.18;;;;;;;;;;6156595;23;20245;-90
2023/09/13 11:49:43;;;;;;;8.90;8.10;;;;;;;;;;6155247;23;20191;-91
2023/09/13 11:52:10;;;;;;;10.45;9.45;;;;;;;;;;6157334;23;20250;-91
2023/09/13 11:54:58;;;;;;;10.73;9.85;;;;;;;;;;6156389;23;20233;-90
2023/09/13 11:57:52;;;;;;;10.10;9.18;;;;;;;;;;6157448;23;20238;-92
2023/09/13 12:00:22;;;;;;;8.52;7.82;;;;;;;;;;6156786;23;20246;-90
2023/09/13 12:02:50;;;;;;;9.98;9.18;;;;;;;;;;6155483;23;20523;-91
2023/09/13 12:05:18;;;;;;;10.57;9.68;;;;;;;;;;6162473;23;20226;-92
2023/09/13 12:07:45;;;;;;;10.32;9.43;;;;;;;;;;6170543;23;20171;-93
2023/09/13 12:10:14;;;;;;;8.20;7.55;;;;;;;;;;6167405;23;20245;-94
2023/09/13 12:12:43;;;;;;;9.82;8.88;;;;;;;;;;6166076;23;20210;-91
2023/09/13 12:15:15;;;;;;;8.95;8.15;;;;;;;;;;6183602;23;20180;-91
2023/09/13 12:17:43;;;;;;;7.32;6.72;;;;;;;;;;6183208;23;20159;-91
2023/09/13 12:20:12;;;;;;;7.70;6.97;;;;;;;;;;6183330;23;20179;-91
2023/09/13 12:22:40;;;;;;;7.15;6.18;;;;;;;;;;6170918;23;20156;-92
2023/09/13 12:25:12;;;;;;;13.57;10.45;;;;;;;;;;6158313;23;20197;-92
2023/09/13 12:27:40;;;;;;;11.57;10.35;;;;;;;;;;6156704;23;20572;-90
2023/09/13 12:30:17;;;;;;;20.20;18.15;;;;;;;;;;6157909;23;20258;-91
2023/09/13 12:32:46;;;;;;;12.75;11.45;;;;;;;;;;6127377;23;20168;-92
2023/09/13 12:35:14;;;;;;;10.43;9.43;;;;;;;;;;6127254;23;20203;-93
2023/09/13 12:37:42;;;;;;;7.72;7.03;;;;;;;;;;6143699;23;20176;-91
2023/09/13 12:40:15;;;;;;;5.30;4.90;;;;;;;;;;6143423;23;20175;-94
2023/09/13 12:42:43;;;;;;;6.70;6.10;;;;;;;;;;6132337;23;20172;-92
2023/09/13 12:45:12;;;;;;;5.50;5.10;;;;;;;;;;6138146;23;20227;-93
2023/09/13 12:47:40;;;;;;;6.55;6.00;;;;;;;;;;6145449;23;20167;-93
2023/09/13 12:50:09;;;;;;;7.45;6.75;;;;;;;;;;6137975;23;20179;-92
2023/09/13 12:52:36;;;;;;;7.15;6.65;;;;;;;;;;6144098;23;20164;-92
2023/09/13 12:55:05;;;;;;;6.53;6.03;;;;;;;;;;6146413;23;20183;-93
2023/09/13 12:57:34;;;;;;;7.68;7.07;;;;;;;;;;6142343;23;20172;-92
2023/09/13 13:00:02;;;;;;;7.72;6.97;;;;;;;;;;6142154;23;20172;-92
2023/09/13 13:02:29;;;;;;;8.13;7.43;;;;;;;;;;6143907;23;20183;-92
2023/09/13 13:04:58;;;;;;;7.63;7.03;;;;;;;;;;6148115;23;20211;-93
2023/09/13 13:07:27;;;;;;;8.05;7.32;;;;;;;;;;6146602;23;20172;-92
2023/09/13 13:10:05;;;;;;;6.03;5.53;;;;;;;;;;6141990;23;20171;-94
2023/09/13 13:12:34;;;;;;;4.57;4.25;;;;;;;;;;6145580;23;20185;-93
2023/09/13 13:15:02;;;;;;;5.72;5.22;;;;;;;;;;6141380;23;20168;-92
2023/09/13 13:17:34;;;;;;;6.63;6.03;;;;;;;;;;6136242;23;20175;-93
2023/09/13 13:20:07;;;;;;;5.88;5.07;;;;;;;;;;6135282;23;20176;-93
2023/09/13 13:22:34;;;;;;;5.15;4.75;;;;;;;;;;6139703;23;20191;-93
2023/09/13 13:25:03;;;;;;;5.00;4.70;;;;;;;;;;6135266;23;20178;-92
2023/09/13 13:27:32;;;;;;;5.60;5.20;;;;;;;;;;6132504;23;20545;-92
2023/09/13 13:30:00;;;;;;;4.88;4.47;;;;;;;;;;6139035;23;20176;-92
2023/09/13 13:32:28;;;;;;;4.82;4.53;;;;;;;;;;6157743;23;20195;-93
2023/09/13 13:34:56;;;;;;;6.25;5.65;;;;;;;;;;6158766;23;20183;-93
2023/09/13 13:37:24;;;;;;;5.90;5.40;;;;;;;;;;6159944;23;20177;-93
2023/09/13 13:39:51;;;;;;;4.80;4.40;;;;;;;;;;6163676;23;20175;-93
2023/09/13 13:42:19;;;;;;;4.25;3.95;;;;;;;;;;6171495;23;20182;-94
2023/09/13 13:44:48;;;;;;;4.53;4.13;;;;;;;;;;6157925;23;20187;-92
2023/09/13 13:47:16;;;;;;;5.32;4.97;;;;;;;;;;6156252;23;20598;-92
2023/09/13 13:49:43;;;;;;;5.00;4.65;;;;;;;;;;6160734;23;20206;-91
2023/09/13 13:52:11;;;;;;;5.43;5.00;;;;;;;;;;6158976;23;20193;-92
2023/09/13 13:54:39;;;;;;;7.70;6.10;;;;;;;;;;6168210;23;20163;-91
2023/09/13 13:57:07;;;;;;;5.57;5.13;;;;;;;;;;6161530;23;20207;-92
2023/09/13 13:59:34;;;;;;;4.82;4.43;;;;;;;;;;6160535;23;20191;-92
2023/09/13 14:02:04;;;;;;;5.03;4.60;;;;;;;;;;6158682;23;20654;-91
2023/09/13 14:04:32;;;;;;;4.75;4.35;;;;;;;;;;6157944;23;20176;-92
2023/09/13 14:07:00;;;;;;;4.50;4.13;;;;;;;;;;6157561;23;20218;-92
2023/09/13 14:09:29;;;;;;;4.93;4.63;;;;;;;;;;6159021;23;20213;-93
2023/09/13 14:11:57;;;;;;;5.15;4.75;;;;;;;;;;6157968;23;20512;-92
2023/09/13 14:14:28;;;;;;;5.97;5.47;;;;;;;;;;6160021;23;20191;-93
2023/09/13 14:16:56;;;;;;;5.80;5.30;;;;;;;;;;6158645;23;20175;-92
2023/09/13 14:19:25;;;;;;;5.53;5.13;;;;;;;;;;6158914;23;20214;-93
2023/09/13 14:21:52;;;;;;;4.60;4.28;;;;;;;;;;6161142;23;20190;-92
2023/09/13 14:24:20;;;;;;;4.55;4.18;;;;;;;;;;6166099;23;20187;-94
2023/09/13 14:26:48;;;;;;;3.80;3.38;;;;;;;;;;6169935;23;20534;-93
2023/09/13 14:29:15;;;;;;;4.75;4.35;;;;;;;;;;6171052;23;20198;-93
2023/09/13 14:31:45;;;;;;;4.38;4.07;;;;;;;;;;6173070;23;20243;-93
2023/09/13 14:34:13;;;;;;;4.38;4.03;;;;;;;;;;6180238;23;20213;-93
2023/09/13 14:36:42;;;;;;;4.45;4.05;;;;;;;;;;6173069;23;20175;-92
2023/09/13 14:39:09;;;;;;;4.65;4.35;;;;;;;;;;6158901;23;20214;-93
2023/09/13 14:41:37;;;;;;;5.05;4.53;;;;;;;;;;6160888;23;20171;-92
2023/09/13 14:44:05;;;;;;;3.85;3.55;;;;;;;;;;6159152;23;20551;-92
2023/09/13 14:46:33;;;;;;;4.53;4.15;;;;;;;;;;6160110;23;20245;-92
2023/09/13 14:49:01;;;;;;;4.50;4.10;;;;;;;;;;6161972;23;20210;-92
2023/09/13 14:51:29;;;;;;;4.63;4.22;;;;;;;;;;6157465;23;20174;-92